createdAt,value
2018-05-18T00:00:32.035Z,944.08
2018-05-18T00:01:40.096Z,944.07
2018-05-18T00:02:48.203Z,944.08
2018-05-18T00:03:56.322Z,944.06
2018-05-18T00:05:04.293Z,944.08
2018-05-18T00:06:12.347Z,944.05
2018-05-18T00:07:20.400Z,944.05
2018-05-18T00:08:28.492Z,944.06
2018-05-18T00:09:36.663Z,944.07
2018-05-18T00:10:44.637Z,944.06
2018-05-18T00:11:52.672Z,944.08
2018-05-18T00:13:00.705Z,944.08
2018-05-18T00:14:08.788Z,944.08
2018-05-18T00:15:17.030Z,944.09
2018-05-18T00:16:24.920Z,944.06
2018-05-18T00:17:32.978Z,944.10
2018-05-18T00:18:41.129Z,944.09
2018-05-18T00:19:49.104Z,944.06
2018-05-18T00:20:57.295Z,944.05
2018-05-18T00:22:05.236Z,944.06
2018-05-18T00:23:13.305Z,944.09
2018-05-18T00:24:21.362Z,944.05
2018-05-18T00:25:29.415Z,944.06
2018-05-18T00:26:37.518Z,943.99
2018-05-18T00:27:45.548Z,943.98
2018-05-18T00:28:53.616Z,943.95
2018-05-18T00:30:01.671Z,943.95
2018-05-18T00:31:09.721Z,943.91
2018-05-18T00:32:17.852Z,943.91
2018-05-18T00:33:25.863Z,943.90
2018-05-18T00:34:34.043Z,943.89
2018-05-18T00:35:41.985Z,943.89
2018-05-18T00:36:50.045Z,943.87
2018-05-18T00:37:58.170Z,943.85
2018-05-18T00:39:06.180Z,943.86
2018-05-18T00:40:14.240Z,943.84
2018-05-18T00:41:22.288Z,943.85
2018-05-18T00:42:30.370Z,943.84
2018-05-18T00:43:38.533Z,943.90
2018-05-18T00:44:46.488Z,943.89
2018-05-18T00:45:54.547Z,943.88
2018-05-18T00:47:02.608Z,943.85
2018-05-18T00:48:10.647Z,943.89
2018-05-18T00:49:18.780Z,943.88
2018-05-18T00:50:26.904Z,943.84
2018-05-18T00:51:34.864Z,943.85
2018-05-18T00:52:42.918Z,943.85
2018-05-18T00:53:50.968Z,943.86
2018-05-18T00:54:59.161Z,943.87
2018-05-18T00:56:07.112Z,943.84
2018-05-18T00:57:15.188Z,943.82
2018-05-18T00:58:23.236Z,943.76
2018-05-18T00:59:31.303Z,943.82
2018-05-18T01:00:39.495Z,943.83
2018-05-18T01:01:47.451Z,943.79
2018-05-18T01:02:55.510Z,943.76
2018-05-18T01:04:03.566Z,943.75
2018-05-18T01:05:11.636Z,943.72
2018-05-18T01:06:19.800Z,943.74
2018-05-18T01:07:27.769Z,943.77
2018-05-18T01:08:35.823Z,943.79
2018-05-18T01:09:43.901Z,943.74
2018-05-18T01:10:51.964Z,943.77
2018-05-18T01:12:00.139Z,943.78
2018-05-18T01:13:08.084Z,943.75
2018-05-18T01:14:16.158Z,943.74
2018-05-18T01:15:24.207Z,943.73
2018-05-18T01:16:32.270Z,943.75
2018-05-18T01:17:40.381Z,943.74
2018-05-18T01:18:48.403Z,943.69
2018-05-18T01:19:56.479Z,943.69
2018-05-18T01:21:04.519Z,943.77
2018-05-18T01:22:12.662Z,943.73
2018-05-18T01:23:20.627Z,943.74
2018-05-18T01:24:28.724Z,943.80
2018-05-18T01:25:36.771Z,943.76
2018-05-18T01:26:44.850Z,943.75
2018-05-18T01:27:53.141Z,943.77
2018-05-18T01:29:00.932Z,943.80
2018-05-18T01:30:09.037Z,943.79
2018-05-18T01:31:17.079Z,943.74
2018-05-18T01:32:25.135Z,943.72
2018-05-18T01:33:33.257Z,943.73
2018-05-18T01:34:41.242Z,943.71
2018-05-18T01:35:49.328Z,943.68
2018-05-18T01:36:57.397Z,943.69
2018-05-18T01:38:05.466Z,943.71
2018-05-18T01:39:13.647Z,943.71
2018-05-18T01:40:21.573Z,943.70
2018-05-18T01:41:29.661Z,943.74
2018-05-18T01:42:37.709Z,943.72
2018-05-18T01:43:45.766Z,943.77
2018-05-18T01:44:53.888Z,943.79
2018-05-18T01:46:01.901Z,943.79
2018-05-18T01:47:09.967Z,943.83
2018-05-18T01:48:18.016Z,943.82
2018-05-18T01:49:26.097Z,943.91
2018-05-18T01:50:34.267Z,943.84
2018-05-18T01:51:42.225Z,943.83
2018-05-18T01:52:50.396Z,943.81
2018-05-18T01:53:58.346Z,943.78
2018-05-18T01:55:06.428Z,943.82
2018-05-18T01:56:14.536Z,943.82
2018-05-18T01:57:22.525Z,943.81
2018-05-18T01:58:30.571Z,943.78
2018-05-18T01:59:38.657Z,943.83
2018-05-18T02:00:46.711Z,943.83
2018-05-18T02:01:54.889Z,943.81
2018-05-18T02:03:02.837Z,943.81
2018-05-18T02:04:10.875Z,943.80
2018-05-18T02:05:18.968Z,943.80
2018-05-18T02:06:27.037Z,943.77
2018-05-18T02:07:35.133Z,943.77
2018-05-18T02:08:43.216Z,943.76
2018-05-18T02:09:51.224Z,943.80
2018-05-18T02:10:59.287Z,943.76
2018-05-18T02:12:07.459Z,943.78
2018-05-18T02:13:15.400Z,943.75
2018-05-18T02:14:23.469Z,943.76
2018-05-18T02:15:31.522Z,943.76
2018-05-18T02:16:39.584Z,943.76
2018-05-18T02:17:47.764Z,943.70
2018-05-18T02:18:55.721Z,943.69
2018-05-18T02:20:03.778Z,943.65
2018-05-18T02:21:11.852Z,943.65
2018-05-18T02:22:19.909Z,943.68
2018-05-18T02:23:28.013Z,943.69
2018-05-18T02:24:36.140Z,943.64
2018-05-18T02:25:44.101Z,943.69
2018-05-18T02:26:52.163Z,943.63
2018-05-18T02:28:00.218Z,943.60
2018-05-18T02:29:08.427Z,943.60
2018-05-18T02:30:16.340Z,943.59
2018-05-18T02:31:24.407Z,943.57
2018-05-18T02:32:32.463Z,943.51
2018-05-18T02:33:40.523Z,943.54
2018-05-18T02:34:48.646Z,943.52
2018-05-18T02:35:56.656Z,943.51
2018-05-18T02:37:04.726Z,943.53
2018-05-18T02:38:12.819Z,943.50
2018-05-18T02:39:20.820Z,943.53
2018-05-18T02:40:29.151Z,943.54
2018-05-18T02:41:36.965Z,943.50
2018-05-18T02:42:45.038Z,943.55
2018-05-18T02:43:53.092Z,943.56
2018-05-18T02:45:01.129Z,943.55
2018-05-18T02:46:09.320Z,943.54
2018-05-18T02:47:17.289Z,943.54
2018-05-18T02:48:25.334Z,943.54
2018-05-18T02:49:33.406Z,943.59
2018-05-18T02:50:41.451Z,943.56
2018-05-18T02:51:49.581Z,943.57
2018-05-18T02:52:57.590Z,943.54
2018-05-18T02:54:05.667Z,943.51
2018-05-18T02:55:13.727Z,943.49
2018-05-18T02:56:21.889Z,943.46
2018-05-18T02:57:29.881Z,943.49
2018-05-18T02:58:37.920Z,943.49
2018-05-18T02:59:45.957Z,943.53
2018-05-18T03:00:54.017Z,943.51
2018-05-18T03:02:02.093Z,943.51
2018-05-18T03:03:10.160Z,943.54
2018-05-18T03:04:18.211Z,943.52
2018-05-18T03:05:26.284Z,943.54
2018-05-18T03:06:34.337Z,943.53
2018-05-18T03:07:42.435Z,943.51
2018-05-18T03:08:50.449Z,943.51
2018-05-18T03:09:58.525Z,943.55
2018-05-18T03:11:06.593Z,943.51
2018-05-18T03:12:14.692Z,943.52
2018-05-18T03:13:22.720Z,943.51
2018-05-18T03:14:30.756Z,943.50
2018-05-18T03:15:38.848Z,943.50
2018-05-18T03:16:46.892Z,943.51
2018-05-18T03:17:55.156Z,943.48
2018-05-18T03:19:03.017Z,943.48
2018-05-18T03:20:11.065Z,943.49
2018-05-18T03:21:19.143Z,943.47
2018-05-18T03:22:27.197Z,943.49
2018-05-18T03:23:35.330Z,943.50
2018-05-18T03:24:43.342Z,943.53
2018-05-18T03:25:51.416Z,943.55
2018-05-18T03:26:59.461Z,943.52
2018-05-18T03:28:07.520Z,943.52
2018-05-18T03:29:15.703Z,943.54
2018-05-18T03:30:23.656Z,943.50
2018-05-18T03:31:31.716Z,943.51
2018-05-18T03:32:39.767Z,943.52
2018-05-18T03:33:47.827Z,943.51
2018-05-18T03:34:55.953Z,943.54
2018-05-18T03:36:03.960Z,943.56
2018-05-18T03:37:12.033Z,943.55
2018-05-18T03:38:20.089Z,943.55
2018-05-18T03:39:28.149Z,943.58
2018-05-18T03:40:36.334Z,943.61
2018-05-18T03:41:44.267Z,943.61
2018-05-18T03:42:52.450Z,943.58
2018-05-18T03:44:00.387Z,943.60
2018-05-18T03:45:08.458Z,943.63
2018-05-18T03:46:16.564Z,943.65
2018-05-18T03:47:24.587Z,943.66
2018-05-18T03:48:32.649Z,943.69
2018-05-18T03:49:40.692Z,943.67
2018-05-18T03:50:48.787Z,943.68
2018-05-18T03:51:56.945Z,943.69
2018-05-18T03:53:04.883Z,943.67
2018-05-18T03:54:12.993Z,943.70
2018-05-18T03:55:21.004Z,943.72
2018-05-18T03:56:29.091Z,943.74
2018-05-18T03:57:37.194Z,943.71
2018-05-18T03:58:45.454Z,943.68
2018-05-18T03:59:53.270Z,943.69
2018-05-18T04:01:01.324Z,943.62
2018-05-18T04:02:09.440Z,943.65
2018-05-18T04:03:17.450Z,943.66
2018-05-18T04:04:25.524Z,943.64
2018-05-18T04:05:33.572Z,943.68
2018-05-18T04:06:41.628Z,943.66
2018-05-18T04:07:49.760Z,943.65
2018-05-18T04:08:57.760Z,943.68
2018-05-18T04:10:05.822Z,943.69
2018-05-18T04:11:13.888Z,943.68
2018-05-18T04:12:21.999Z,943.73
2018-05-18T04:13:30.016Z,943.71
2018-05-18T04:14:38.190Z,943.71
2018-05-18T04:15:46.128Z,943.72
2018-05-18T04:16:54.212Z,943.72
2018-05-18T04:18:02.313Z,943.73
2018-05-18T04:19:10.330Z,943.70
2018-05-18T04:20:18.376Z,943.71
2018-05-18T04:21:26.453Z,943.74
2018-05-18T04:22:34.617Z,943.75
2018-05-18T04:23:42.580Z,943.75
2018-05-18T04:24:50.614Z,943.74
2018-05-18T04:25:58.694Z,943.76
2018-05-18T04:27:06.763Z,943.74
2018-05-18T04:28:14.930Z,943.74
2018-05-18T04:29:22.879Z,943.74
2018-05-18T04:30:30.996Z,943.76
2018-05-18T04:31:39.007Z,943.72
2018-05-18T04:32:47.068Z,943.76
2018-05-18T04:33:55.237Z,943.75
2018-05-18T04:35:03.197Z,943.74
2018-05-18T04:36:11.233Z,943.75
2018-05-18T04:37:19.333Z,943.75
2018-05-18T04:38:27.388Z,943.75
2018-05-18T04:39:35.497Z,943.74
2018-05-18T04:40:43.514Z,943.76
2018-05-18T04:41:51.583Z,943.74
2018-05-18T04:42:59.670Z,943.73
2018-05-18T04:44:07.709Z,943.76
2018-05-18T04:45:15.898Z,943.77
2018-05-18T04:46:23.939Z,943.76
2018-05-18T04:47:31.888Z,943.78
2018-05-18T04:48:39.965Z,943.79
2018-05-18T04:49:48.007Z,943.81
2018-05-18T04:50:56.261Z,943.81
2018-05-18T04:52:04.128Z,943.84
2018-05-18T04:53:12.211Z,943.85
2018-05-18T04:54:20.271Z,943.89
2018-05-18T04:55:28.336Z,943.88
2018-05-18T04:56:36.508Z,943.90
2018-05-18T04:57:44.470Z,943.87
2018-05-18T04:58:52.601Z,943.84
2018-05-18T05:00:00.610Z,943.91
2018-05-18T05:01:08.671Z,943.96
2018-05-18T05:02:16.756Z,943.98
2018-05-18T05:03:24.791Z,943.89
2018-05-18T05:04:32.883Z,943.86
2018-05-18T05:05:40.888Z,943.86
2018-05-18T05:06:48.980Z,943.88
2018-05-18T05:07:57.097Z,943.87
2018-05-18T05:09:05.097Z,943.90
2018-05-18T05:10:13.190Z,943.88
2018-05-18T05:11:21.217Z,943.92
2018-05-18T05:12:30.035Z,943.93
2018-05-18T05:13:37.368Z,943.93
2018-05-18T05:14:45.420Z,943.93
2018-05-18T05:15:53.494Z,943.95
2018-05-18T05:17:01.558Z,943.96
2018-05-18T05:18:09.756Z,943.96
2018-05-18T05:19:17.692Z,943.97
2018-05-18T05:20:25.756Z,943.96
2018-05-18T05:21:33.817Z,943.99
2018-05-18T05:22:41.873Z,943.98
2018-05-18T05:23:50.047Z,944.02
2018-05-18T05:24:58.251Z,944.01
2018-05-18T05:26:06.085Z,944.01
2018-05-18T05:27:14.147Z,944.03
2018-05-18T05:28:22.251Z,944.04
2018-05-18T05:29:30.315Z,944.05
2018-05-18T05:30:38.336Z,944.03
2018-05-18T05:31:46.391Z,944.07
2018-05-18T05:32:54.508Z,944.06
2018-05-18T05:34:02.542Z,944.09
2018-05-18T05:35:10.701Z,944.10
2018-05-18T05:36:18.654Z,944.10
2018-05-18T05:37:26.721Z,944.06
2018-05-18T05:38:34.793Z,944.11
2018-05-18T05:39:42.858Z,944.13
2018-05-18T05:40:51.002Z,944.11
2018-05-18T05:41:58.987Z,944.10
2018-05-18T05:43:07.050Z,944.16
2018-05-18T05:44:15.104Z,944.12
2018-05-18T05:45:23.186Z,944.14
2018-05-18T05:46:31.335Z,944.13
2018-05-18T05:47:39.353Z,944.14
2018-05-18T05:48:47.365Z,944.16
2018-05-18T05:49:55.431Z,944.16
2018-05-18T05:51:03.500Z,944.15
2018-05-18T05:52:12.115Z,944.19
2018-05-18T05:53:19.632Z,944.20
2018-05-18T05:54:27.707Z,944.21
2018-05-18T05:55:35.766Z,944.24
2018-05-18T05:56:44.069Z,944.27
2018-05-18T05:57:51.938Z,944.25
2018-05-18T05:58:59.964Z,944.24
2018-05-18T06:00:08.020Z,944.23
2018-05-18T06:01:16.084Z,944.24
2018-05-18T06:02:24.216Z,944.28
2018-05-18T06:03:32.217Z,944.26
2018-05-18T06:04:40.291Z,944.28
2018-05-18T06:05:48.344Z,944.28
2018-05-18T06:06:56.416Z,944.30
2018-05-18T06:08:04.597Z,944.29
2018-05-18T06:09:12.539Z,944.28
2018-05-18T06:10:20.594Z,944.30
2018-05-18T06:11:28.671Z,944.28
2018-05-18T06:12:36.744Z,944.25
2018-05-18T06:13:44.919Z,944.23
2018-05-18T06:14:52.868Z,944.21
2018-05-18T06:16:00.916Z,944.25
2018-05-18T06:17:09.000Z,944.26
2018-05-18T06:18:17.177Z,944.28
2018-05-18T06:19:25.294Z,944.27
2018-05-18T06:20:33.186Z,944.26
2018-05-18T06:21:41.253Z,944.29
2018-05-18T06:22:49.328Z,944.30
2018-05-18T06:23:57.468Z,944.33
2018-05-18T06:25:05.573Z,944.31
2018-05-18T06:26:13.641Z,944.32
2018-05-18T06:27:21.584Z,944.32
2018-05-18T06:28:29.653Z,944.34
2018-05-18T06:29:37.706Z,944.42
2018-05-18T06:30:45.832Z,944.43
2018-05-18T06:31:53.857Z,944.40
2018-05-18T06:33:01.925Z,944.41
2018-05-18T06:34:10.088Z,944.40
2018-05-18T06:35:18.116Z,944.42
2018-05-18T06:36:26.196Z,944.42
2018-05-18T06:37:34.189Z,944.42
2018-05-18T06:38:42.252Z,944.44
2018-05-18T06:39:50.311Z,944.47
2018-05-18T06:40:58.386Z,944.44
2018-05-18T06:42:06.491Z,944.49
2018-05-18T06:43:14.520Z,944.51
2018-05-18T06:44:22.580Z,944.53
2018-05-18T06:45:30.618Z,944.54
2018-05-18T06:46:38.701Z,944.55
2018-05-18T06:47:46.810Z,944.52
2018-05-18T06:48:54.842Z,944.55
2018-05-18T06:50:03.031Z,944.56
2018-05-18T06:51:10.952Z,944.56
2018-05-18T06:52:19.093Z,944.56
2018-05-18T06:53:27.097Z,944.60
2018-05-18T06:54:35.161Z,944.57
2018-05-18T06:55:43.241Z,944.62
2018-05-18T06:56:51.286Z,944.58
2018-05-18T06:57:59.487Z,944.57
2018-05-18T06:59:07.434Z,944.57
2018-05-18T07:00:15.497Z,944.55
2018-05-18T07:01:23.566Z,944.60
2018-05-18T07:02:31.642Z,944.59
2018-05-18T07:03:39.742Z,944.61
2018-05-18T07:04:47.771Z,944.59
2018-05-18T07:05:55.948Z,944.62
2018-05-18T07:07:03.908Z,944.64
2018-05-18T07:08:11.955Z,944.66
2018-05-18T07:09:20.144Z,944.62
2018-05-18T07:10:28.128Z,944.59
2018-05-18T07:11:36.161Z,944.70
2018-05-18T07:12:44.242Z,944.69
2018-05-18T07:13:52.301Z,944.72
2018-05-18T07:15:00.481Z,944.76
2018-05-18T07:16:08.434Z,944.76
2018-05-18T07:17:16.508Z,945.02
2018-05-18T07:18:24.581Z,945.03
2018-05-18T07:19:32.649Z,945.19
2018-05-18T07:20:40.802Z,945.54
2018-05-18T07:21:48.831Z,945.31
2018-05-18T07:22:56.910Z,945.50
2018-05-18T07:24:04.959Z,945.75
2018-05-18T07:25:12.993Z,946.03
2018-05-18T07:26:21.086Z,946.14
2018-05-18T07:27:29.133Z,946.15
2018-05-18T07:28:37.241Z,946.08
2018-05-18T07:29:45.281Z,946.09
2018-05-18T07:30:53.338Z,946.21
2018-05-18T07:32:01.544Z,946.31
2018-05-18T07:33:09.482Z,946.40
2018-05-18T07:34:17.554Z,946.57
2018-05-18T07:35:25.638Z,946.78
2018-05-18T07:36:33.711Z,946.73
2018-05-18T07:37:41.835Z,946.89
2018-05-18T07:38:49.860Z,947.02
2018-05-18T07:39:57.944Z,947.01
2018-05-18T07:41:06.024Z,947.00
2018-05-18T07:42:14.137Z,947.04
2018-05-18T07:43:22.169Z,947.13
2018-05-18T07:44:30.239Z,946.67
2018-05-18T07:45:38.312Z,946.20
2018-05-18T07:46:46.397Z,946.82
2018-05-18T07:47:54.522Z,947.18
2018-05-18T07:49:02.535Z,948.04
2018-05-18T07:50:10.703Z,948.31
2018-05-18T07:51:18.710Z,946.40
2018-05-18T07:52:26.869Z,945.11
2018-05-18T07:53:34.887Z,945.11
2018-05-18T07:54:42.939Z,945.36
2018-05-18T07:55:51.003Z,947.13
2018-05-18T07:56:59.093Z,949.39
2018-05-18T07:58:07.168Z,950.55
2018-05-18T07:59:15.252Z,950.89
2018-05-18T08:00:23.327Z,950.69
2018-05-18T08:01:31.389Z,948.58
2018-05-18T08:02:39.534Z,950.36
2018-05-18T08:03:47.573Z,951.25
2018-05-18T08:04:55.646Z,951.38
2018-05-18T08:06:03.732Z,949.65
2018-05-18T08:07:11.849Z,951.24
2018-05-18T08:08:19.883Z,947.51
2018-05-18T08:09:27.963Z,947.01
2018-05-18T08:10:36.061Z,951.95
2018-05-18T08:11:44.120Z,951.88
2018-05-18T08:12:52.247Z,952.22
2018-05-18T08:14:00.268Z,952.43
2018-05-18T08:16:48.284Z,951.83
2018-05-18T08:17:33.630Z,951.79
2018-05-18T08:18:41.808Z,951.97
2018-05-18T08:19:49.770Z,952.01
2018-05-18T08:20:58.440Z,951.76
2018-05-18T08:22:06.038Z,951.79
2018-05-18T08:23:14.005Z,952.27
2018-05-18T08:24:22.215Z,952.79
2018-05-18T08:25:30.171Z,952.24
2018-05-18T08:26:38.264Z,952.34
2018-05-18T08:27:46.408Z,951.81
2018-05-18T08:28:54.417Z,951.90
2018-05-18T08:30:02.614Z,952.23
2018-05-18T08:31:10.569Z,945.66
2018-05-18T08:32:18.657Z,946.53
2018-05-18T08:33:26.741Z,945.16
2018-05-18T08:34:34.819Z,945.23
2018-05-18T08:35:43.031Z,945.43
2018-05-18T08:36:50.977Z,945.39
2018-05-18T08:37:59.179Z,945.37
2018-05-18T08:39:07.169Z,945.19
2018-05-18T08:40:15.226Z,945.34
2018-05-18T08:41:23.433Z,945.22
2018-05-18T08:42:31.376Z,949.86
2018-05-18T08:43:39.482Z,950.19
2018-05-18T08:44:47.544Z,948.94
2018-05-18T08:45:55.624Z,945.67
2018-05-18T08:47:03.760Z,950.33
2018-05-18T08:48:11.787Z,950.14
2018-05-18T08:49:19.856Z,950.48
2018-05-18T08:50:28.046Z,950.48
2018-05-18T08:51:36.021Z,950.44
2018-05-18T08:52:44.156Z,949.15
2018-05-18T08:53:52.302Z,946.11
2018-05-18T08:55:00.259Z,947.19
2018-05-18T08:56:08.332Z,948.07
2018-05-18T08:57:16.535Z,948.74
2018-05-18T08:58:24.541Z,946.91
2018-05-18T08:59:32.618Z,946.23
2018-05-18T09:00:40.703Z,945.69
2018-05-18T09:01:48.743Z,947.49
2018-05-18T09:02:56.935Z,947.71
2018-05-18T09:04:04.912Z,947.45
2018-05-18T09:05:12.973Z,947.25
2018-05-18T09:06:21.039Z,947.22
2018-05-18T09:07:29.143Z,947.05
2018-05-18T09:08:37.335Z,946.93
2018-05-18T09:09:45.422Z,945.61
2018-05-18T09:10:53.381Z,946.61
2018-05-18T09:12:01.452Z,945.33
2018-05-18T09:13:09.527Z,944.98
2018-05-18T09:14:17.725Z,945.18
2018-05-18T09:15:25.695Z,945.17
2018-05-18T09:16:33.762Z,945.11
2018-05-18T09:17:41.847Z,945.08
2018-05-18T09:18:49.932Z,944.67
2018-05-18T09:19:58.113Z,944.72
2018-05-18T09:21:06.083Z,944.78
2018-05-18T09:22:14.162Z,944.74
2018-05-18T09:23:22.252Z,944.89
2018-05-18T09:24:30.303Z,944.84
2018-05-18T09:25:38.429Z,944.77
2018-05-18T09:26:46.473Z,944.88
2018-05-18T09:27:54.531Z,944.85
2018-05-18T09:29:02.620Z,944.79
2018-05-18T09:30:10.671Z,944.87
2018-05-18T09:31:18.883Z,944.70
2018-05-18T09:32:26.830Z,944.71
2018-05-18T09:33:34.908Z,944.67
2018-05-18T09:34:43.021Z,944.69
2018-05-18T09:35:51.051Z,944.65
2018-05-18T09:36:59.250Z,944.73
2018-05-18T09:38:07.209Z,944.72
2018-05-18T09:39:15.277Z,944.71
2018-05-18T09:40:23.355Z,944.73
2018-05-18T09:41:31.467Z,944.62
2018-05-18T09:42:39.551Z,944.58
2018-05-18T09:43:47.574Z,944.61
2018-05-18T09:44:55.655Z,944.64
2018-05-18T09:46:03.726Z,944.68
2018-05-18T09:47:11.846Z,944.63
2018-05-18T09:48:19.873Z,944.58
2018-05-18T09:49:27.950Z,944.63
2018-05-18T09:50:36.022Z,944.59
2018-05-18T09:51:44.096Z,944.60
2018-05-18T09:52:52.265Z,944.56
2018-05-18T09:54:00.305Z,944.56
2018-05-18T09:55:08.443Z,944.56
2018-05-18T09:56:16.381Z,944.58
2018-05-18T09:57:24.509Z,944.54
2018-05-18T09:58:32.655Z,944.51
2018-05-18T09:59:40.601Z,944.49
2018-05-18T10:00:48.787Z,944.51
2018-05-18T10:01:56.754Z,944.48
2018-05-18T10:03:04.823Z,944.48
2018-05-18T10:04:13.000Z,944.54
2018-05-18T10:05:20.942Z,944.56
2018-05-18T10:06:29.035Z,944.54
2018-05-18T10:07:37.103Z,944.53
2018-05-18T10:08:45.313Z,944.56
2018-05-18T10:09:53.349Z,944.60
2018-05-18T10:11:01.295Z,944.58
2018-05-18T10:12:09.460Z,944.58
2018-05-18T10:13:17.488Z,944.53
2018-05-18T10:14:25.558Z,944.50
2018-05-18T10:15:33.709Z,944.49
2018-05-18T10:16:41.690Z,944.41
2018-05-18T10:17:49.763Z,944.45
2018-05-18T10:18:57.829Z,944.52
2018-05-18T10:20:05.907Z,944.58
2018-05-18T10:21:14.078Z,944.53
2018-05-18T10:22:22.035Z,944.53
2018-05-18T10:23:30.111Z,944.49
2018-05-18T10:24:38.193Z,944.43
2018-05-18T10:25:46.268Z,944.46
2018-05-18T10:26:54.475Z,944.50
2018-05-18T10:28:02.398Z,944.40
2018-05-18T10:29:10.463Z,944.40
2018-05-18T10:30:18.548Z,944.36
2018-05-18T10:31:26.630Z,944.33
2018-05-18T10:32:35.470Z,944.26
2018-05-18T10:33:42.798Z,944.24
2018-05-18T10:34:50.809Z,944.25
2018-05-18T10:35:58.897Z,944.24
2018-05-18T10:37:07.086Z,944.19
2018-05-18T10:38:15.213Z,944.23
2018-05-18T10:39:23.117Z,944.21
2018-05-18T10:40:31.172Z,944.21
2018-05-18T10:41:39.266Z,944.21
2018-05-18T10:42:47.446Z,944.21
2018-05-18T10:43:55.399Z,944.19
2018-05-18T10:45:03.505Z,944.19
2018-05-18T10:46:11.548Z,944.18
2018-05-18T10:47:19.624Z,944.16
2018-05-18T10:48:27.811Z,944.15
2018-05-18T10:49:35.774Z,944.17
2018-05-18T10:50:43.856Z,944.15
2018-05-18T10:51:51.926Z,944.16
2018-05-18T10:53:00.025Z,944.12
2018-05-18T10:54:08.200Z,944.13
2018-05-18T10:55:16.150Z,944.09
2018-05-18T10:56:24.259Z,944.12
2018-05-18T10:57:32.338Z,944.10
2018-05-18T10:58:40.442Z,944.09
2018-05-18T10:59:48.535Z,944.12
2018-05-18T11:00:56.489Z,944.12
2018-05-18T11:02:04.845Z,944.09
2018-05-18T11:03:13.226Z,944.11
2018-05-18T11:04:21.356Z,944.10
2018-05-18T11:05:29.526Z,944.12
2018-05-18T11:06:37.462Z,944.15
2018-05-18T11:07:44.944Z,944.13
2018-05-18T11:08:52.996Z,944.09
2018-05-18T11:10:01.147Z,944.04
2018-05-18T11:11:10.241Z,944.04
2018-05-18T11:12:18.137Z,944.01
2018-05-18T11:13:27.592Z,944.00
2018-05-18T11:14:34.023Z,944.00
2018-05-18T11:15:41.777Z,943.99
2018-05-18T11:16:50.577Z,943.98
2018-05-18T11:17:58.075Z,944.00
2018-05-18T11:19:06.021Z,943.96
2018-05-18T11:20:13.884Z,944.00
2018-05-18T11:21:22.317Z,943.96
2018-05-18T11:22:30.547Z,943.97
2018-05-18T11:23:38.565Z,943.98
2018-05-18T11:24:45.989Z,943.98
2018-05-18T11:25:54.072Z,943.93
2018-05-18T11:27:02.149Z,943.95
2018-05-18T11:28:10.205Z,943.96
2018-05-18T11:29:18.398Z,943.91
2018-05-18T11:30:26.355Z,943.96
2018-05-18T11:31:34.420Z,943.85
2018-05-18T11:32:42.557Z,943.95
2018-05-18T11:33:50.552Z,943.89
2018-05-18T11:34:58.642Z,943.87
2018-05-18T11:36:06.706Z,943.89
2018-05-18T11:37:14.887Z,943.89
2018-05-18T11:38:22.835Z,943.86
2018-05-18T11:39:30.896Z,943.81
2018-05-18T11:40:39.012Z,943.85
2018-05-18T11:41:47.066Z,943.86
2018-05-18T11:42:55.250Z,943.87
2018-05-18T11:44:03.205Z,943.85
2018-05-18T11:45:11.366Z,943.82
2018-05-18T11:46:19.343Z,943.81
2018-05-18T11:47:27.421Z,943.78
2018-05-18T11:48:35.545Z,943.78
2018-05-18T11:49:43.562Z,943.74
2018-05-18T11:50:51.625Z,943.73
2018-05-18T11:51:59.706Z,943.74
2018-05-18T11:53:07.770Z,943.69
2018-05-18T11:54:15.964Z,943.65
2018-05-18T11:55:23.920Z,943.67
2018-05-18T11:56:31.999Z,943.70
2018-05-18T11:57:40.084Z,943.62
2018-05-18T11:58:49.177Z,943.64
2018-05-18T11:59:56.324Z,943.59
2018-05-18T12:01:04.326Z,943.59
2018-05-18T12:02:12.357Z,943.53
2018-05-18T12:03:20.429Z,943.54
2018-05-18T12:04:28.499Z,943.59
2018-05-18T12:05:36.693Z,943.55
2018-05-18T12:06:44.645Z,943.56
2018-05-18T12:07:52.716Z,943.56
2018-05-18T12:09:00.755Z,943.56
2018-05-18T12:10:08.853Z,943.55
2018-05-18T12:11:17.044Z,943.58
2018-05-18T12:12:24.998Z,943.58
2018-05-18T12:13:33.085Z,943.52
2018-05-18T12:14:41.124Z,943.51
2018-05-18T12:15:49.225Z,943.51
2018-05-18T12:16:57.409Z,943.52
2018-05-18T12:18:05.362Z,943.54
2018-05-18T12:19:13.448Z,943.53
2018-05-18T12:20:21.596Z,943.50
2018-05-18T12:21:29.592Z,943.48
2018-05-18T12:22:37.707Z,943.54
2018-05-18T12:23:45.724Z,943.54
2018-05-18T12:24:53.809Z,943.52
2018-05-18T12:26:01.979Z,943.53
2018-05-18T12:27:10.065Z,943.53
2018-05-18T12:28:18.020Z,943.51
2018-05-18T12:29:26.105Z,943.47
2018-05-18T12:30:34.448Z,943.45
2018-05-18T12:31:42.365Z,943.46
2018-05-18T12:32:50.371Z,943.46
2018-05-18T12:33:58.411Z,943.45
2018-05-18T12:35:06.457Z,943.37
2018-05-18T12:36:14.539Z,943.35
2018-05-18T12:37:22.732Z,943.36
2018-05-18T12:38:30.672Z,943.44
2018-05-18T12:39:38.784Z,943.49
2018-05-18T12:40:46.839Z,943.46
2018-05-18T12:41:54.910Z,943.47
2018-05-18T12:43:03.100Z,943.43
2018-05-18T12:44:11.023Z,943.43
2018-05-18T12:45:19.128Z,943.45
2018-05-18T12:46:27.212Z,943.47
2018-05-18T12:47:35.320Z,943.47
2018-05-18T12:48:43.412Z,943.45
2018-05-18T12:49:51.411Z,943.48
2018-05-18T12:50:59.501Z,943.50
2018-05-18T12:52:07.586Z,943.47
2018-05-18T12:53:15.638Z,943.41
2018-05-18T12:54:23.836Z,943.38
2018-05-18T12:55:31.791Z,943.41
2018-05-18T12:56:39.869Z,943.30
2018-05-18T12:57:47.950Z,943.30
2018-05-18T12:58:56.033Z,943.30
2018-05-18T13:00:04.195Z,943.29
2018-05-18T13:01:12.163Z,943.28
2018-05-18T13:02:20.339Z,943.30
2018-05-18T13:03:28.302Z,943.27
2018-05-18T13:04:36.384Z,943.27
2018-05-18T13:05:44.573Z,943.25
2018-05-18T13:06:52.509Z,943.26
2018-05-18T13:08:00.623Z,943.25
2018-05-18T13:09:08.666Z,943.26
2018-05-18T13:10:16.742Z,943.28
2018-05-18T13:11:24.937Z,943.24
2018-05-18T13:12:32.908Z,943.28
2018-05-18T13:13:40.946Z,943.24
2018-05-18T13:14:49.028Z,943.22
2018-05-18T13:15:57.183Z,943.25
2018-05-18T13:17:05.241Z,943.24
2018-05-18T13:18:13.237Z,943.24
2018-05-18T13:19:21.298Z,943.17
2018-05-18T13:20:29.409Z,943.24
2018-05-18T13:21:37.478Z,943.23
2018-05-18T13:22:45.601Z,943.21
2018-05-18T13:23:53.616Z,943.21
2018-05-18T13:25:01.727Z,943.20
2018-05-18T13:26:09.761Z,943.17
2018-05-18T13:27:17.865Z,943.21
2018-05-18T13:28:26.015Z,943.21
2018-05-18T13:29:33.969Z,943.19
2018-05-18T13:30:42.057Z,943.20
2018-05-18T13:31:50.124Z,943.19
2018-05-18T13:32:58.235Z,943.17
2018-05-18T13:34:06.375Z,943.17
2018-05-18T13:35:14.326Z,943.12
2018-05-18T13:36:22.424Z,943.15
2018-05-18T13:37:30.455Z,943.11
2018-05-18T13:38:38.668Z,943.10
2018-05-18T13:39:46.735Z,943.09
2018-05-18T13:40:54.699Z,943.04
2018-05-18T13:42:02.789Z,943.01
2018-05-18T13:43:10.822Z,943.00
2018-05-18T13:44:18.899Z,942.99
2018-05-18T13:45:27.113Z,942.97
2018-05-18T13:46:35.056Z,943.01
2018-05-18T13:47:43.237Z,943.00
2018-05-18T13:48:51.190Z,943.01
2018-05-18T13:49:59.272Z,943.01
2018-05-18T13:51:07.457Z,943.02
2018-05-18T13:52:15.421Z,943.06
2018-05-18T13:53:23.491Z,943.03
2018-05-18T13:54:31.567Z,943.09
2018-05-18T13:55:39.643Z,943.05
2018-05-18T13:56:47.828Z,943.05
2018-05-18T13:57:55.780Z,943.04
2018-05-18T13:59:03.859Z,942.99
2018-05-18T14:00:11.912Z,943.02
2018-05-18T14:01:19.997Z,942.98
2018-05-18T14:02:28.115Z,943.02
2018-05-18T14:03:36.256Z,943.03
2018-05-18T14:04:44.200Z,943.02
2018-05-18T14:05:52.273Z,943.04
2018-05-18T14:07:00.356Z,943.04
2018-05-18T14:08:08.436Z,943.01
2018-05-18T14:09:16.486Z,942.98
2018-05-18T14:10:24.577Z,943.00